Time;durP1;ratioP1;P1;durP2;ratioP2;P2;SDS_P1;SDS_P2;PMS_P1;PMS_P2;Temp;Humidity;BMP_temperature;BMP_pressure;BME280_temperature;BME280_humidity;BME280_pressure;Samples;Min_cycle;Max_cycle;Signal;HPM_P1;HPM_P2
2021/12/14 00:00:28;;;;;;;9.30;8.50;;;9.60;82.70;;;;;;5032006;28;20060;-81
2021/12/14 00:02:54;;;;;;;9.83;9.23;;;9.60;82.60;;;;;;5050515;28;20052;-81
2021/12/14 00:05:21;;;;;;;11.00;10.38;;;9.60;82.60;;;;;;5049261;28;20036;-82
2021/12/14 00:07:47;;;;;;;9.98;9.27;;;9.60;82.60;;;;;;5053198;28;20044;-81
2021/12/14 00:13:02;;;;;;;11.18;10.15;;;9.60;82.70;;;;;;5062667;28;20039;-81
2021/12/14 00:15:28;;;;;;;9.60;9.00;;;9.60;82.70;;;;;;5034880;28;20045;-81
2021/12/14 00:18:01;;;;;;;11.98;11.25;;;9.60;82.70;;;;;;5052032;28;20025;-81
2021/12/14 00:20:40;;;;;;;11.18;10.55;;;9.50;82.70;;;;;;5050134;28;20029;-82
2021/12/14 00:25:44;;;;;;;11.80;11.10;;;9.50;82.70;;;;;;5054839;28;20037;-81
2021/12/14 00:28:25;;;;;;;11.02;10.48;;;9.50;82.80;;;;;;5048482;28;20033;-81
2021/12/14 00:30:52;;;;;;;;;;;9.40;82.80;;;;;;5031760;28;20037;-81
2021/12/14 00:33:20;;;;;;;10.95;10.38;;;9.40;82.80;;;;;;5048514;28;19912;-81
2021/12/14 00:35:46;;;;;;;11.40;10.80;;;9.30;82.90;;;;;;5048413;28;20031;-81
2021/12/14 00:38:14;;;;;;;12.25;11.63;;;9.30;82.90;;;;;;5034959;28;20478;-81
2021/12/14 00:40:43;;;;;;;9.93;9.30;;;9.30;83.00;;;;;;5050578;28;20033;-81
2021/12/14 00:43:09;;;;;;;8.38;7.97;;;9.30;83.00;;;;;;5050704;28;20036;-81
2021/12/14 00:45:37;;;;;;;7.72;7.32;;;9.30;83.00;;;;;;5047891;28;20087;-81
2021/12/14 00:48:05;;;;;;;11.25;10.63;;;9.30;83.00;;;;;;5047449;28;20397;-81
2021/12/14 00:50:31;;;;;;;14.50;11.05;;;9.30;83.00;;;;;;5049050;28;20029;-81
2021/12/14 00:52:57;;;;;;;8.80;8.20;;;9.30;83.00;;;;;;5034895;28;20033;-81
2021/12/14 00:55:27;;;;;;;8.65;8.02;;;9.30;83.00;;;;;;5048692;28;20477;-81
2021/12/14 00:57:53;;;;;;;14.40;10.23;;;9.30;83.00;;;;;;5034330;28;20044;-81
2021/12/14 01:00:21;;;;;;;10.32;9.32;;;9.30;83.00;;;;;;5050560;28;20044;-81
2021/12/14 01:02:48;;;;;;;9.38;8.98;;;9.30;83.00;;;;;;5032000;28;20053;-81
2021/12/14 01:05:26;;;;;;;10.45;8.00;;;9.30;83.00;;;;;;5050433;28;20024;-81
2021/12/14 01:07:52;;;;;;;10.38;9.85;;;9.30;83.10;;;;;;5051233;28;20028;-81
2021/12/14 01:10:28;;;;;;;10.15;9.65;;;9.20;82.90;;;;;;5049385;28;20029;-81
2021/12/14 01:12:59;;;;;;;12.05;11.45;;;9.20;83.00;;;;;;5048499;28;20088;-81
2021/12/14 01:18:46;;;;;;;10.27;9.57;;;9.20;83.10;;;;;;5051168;28;19920;-81
2021/12/14 01:21:46;;;;;;;15.53;7.67;;;9.10;83.80;;;;;;5049267;28;20033;-81
2021/12/14 01:27:09;;;;;;;7.78;7.40;;;9.20;83.10;;;;;;5048351;28;20028;-81
2021/12/14 01:29:36;;;;;;;8.85;8.20;;;9.10;83.00;;;;;;5049470;28;20509;-81
2021/12/14 01:32:03;;;;;;;7.97;7.57;;;9.20;83.10;;;;;;5035112;28;20041;-81
2021/12/14 01:34:31;;;;;;;8.18;7.60;;;9.20;83.10;;;;;;5046786;28;20036;-81
2021/12/14 01:37:05;;;;;;;7.47;7.07;;;9.10;83.10;;;;;;5028826;28;20044;-81
2021/12/14 01:39:48;;;;;;;7.50;7.07;;;9.20;83.20;;;;;;5047379;28;20037;-81
2021/12/14 01:42:23;;;;;;;8.13;7.57;;;9.20;83.10;;;;;;5035029;28;20536;-81
2021/12/14 01:44:58;;;;;;;7.47;7.13;;;9.20;83.10;;;;;;5049394;28;20033;-81
2021/12/14 01:47:31;;;;;;;7.50;7.10;;;9.20;83.00;;;;;;5046655;28;20044;-81
2021/12/14 01:49:57;;;;;;;8.10;7.60;;;9.30;83.00;;;;;;5033536;28;20045;-81
2021/12/14 01:52:29;;;;;;;8.63;8.00;;;9.30;83.10;;;;;;5047945;28;20044;-81
2021/12/14 01:54:58;;;;;;;8.50;7.85;;;9.30;83.00;;;;;;5047699;28;20016;-81
2021/12/14 01:57:26;;;;;;;9.90;9.35;;;9.20;82.90;;;;;;5048049;28;20389;-81
2021/12/14 01:59:58;;;;;;;9.43;8.93;;;9.20;83.00;;;;;;5049190;28;20044;-81
2021/12/14 02:02:34;;;;;;;8.32;7.93;;;9.20;83.10;;;;;;5049314;28;20044;-81
2021/12/14 02:05:28;;;;;;;7.95;7.55;;;9.20;83.20;;;;;;5033738;28;20036;-81
2021/12/14 02:07:55;;;;;;;14.25;13.45;;;9.20;83.20;;;;;;4977913;28;20053;-81
2021/12/14 02:10:35;;;;;;;8.80;8.20;;;9.20;83.10;;;;;;4973312;28;20538;-81
2021/12/14 02:13:02;;;;;;;7.45;7.05;;;9.10;83.10;;;;;;4989105;28;20042;-81
2021/12/14 02:15:40;;;;;;;7.85;7.45;;;9.10;83.20;;;;;;4973023;28;20049;-81
2021/12/14 02:18:17;;;;;;;8.77;8.18;;;9.10;83.20;;;;;;4964954;28;20034;-81
2021/12/14 02:21:06;;;;;;;8.30;7.80;;;9.20;83.30;;;;;;4987963;28;20414;-81
2021/12/14 02:23:33;;;;;;;7.85;7.35;;;9.20;83.20;;;;;;4972713;28;20049;-81
2021/12/14 02:26:00;;;;;;;8.07;7.55;;;9.20;83.10;;;;;;4973594;28;20045;-81
2021/12/14 02:28:27;;;;;;;7.88;7.47;;;9.20;83.10;;;;;;4972516;28;20038;-81
2021/12/14 02:30:54;;;;;;;7.70;7.30;;;9.20;83.10;;;;;;4954767;28;20030;-82
2021/12/14 02:33:28;;;;;;;7.30;6.90;;;9.30;83.10;;;;;;4974113;28;20043;-81
2021/12/14 02:35:54;;;;;;;7.50;6.90;;;9.20;82.90;;;;;;4973712;28;20042;-81
2021/12/14 02:38:20;;;;;;;7.45;7.05;;;9.20;83.10;;;;;;4972957;28;20376;-81
2021/12/14 02:40:57;;;;;;;7.60;7.07;;;9.20;83.10;;;;;;4973775;28;20039;-81
2021/12/14 02:43:36;;;;;;;8.20;7.70;;;9.20;83.10;;;;;;4973069;28;20146;-81
2021/12/14 02:46:13;;;;;;;8.23;7.72;;;9.20;83.10;;;;;;5035595;28;20036;-81
2021/12/14 02:48:41;;;;;;;6.82;6.53;;;9.20;83.10;;;;;;5047902;28;20048;-81
2021/12/14 02:51:23;;;;;;;7.85;7.45;;;9.20;83.10;;;;;;5013615;28;20496;-81
2021/12/14 02:53:50;;;;;;;10.70;9.88;;;9.20;83.10;;;;;;5040872;28;20405;-81
2021/12/14 02:56:24;;;;;;;7.30;7.00;;;9.20;83.10;;;;;;5049821;28;20040;-81
2021/12/14 02:58:55;;;;;;;13.52;12.82;;;9.10;83.10;;;;;;5032275;28;20044;-81
2021/12/14 03:01:22;;;;;;;9.63;9.02;;;9.10;83.20;;;;;;5050029;28;20034;-81
2021/12/14 03:03:48;;;;;;;24.48;7.85;;;9.10;83.20;;;;;;5029880;28;20368;-81
2021/12/14 03:06:20;;;;;;;7.50;7.00;;;9.00;83.30;;;;;;5044409;28;20524;-81
2021/12/14 03:08:48;;;;;;;7.55;7.15;;;9.00;83.40;;;;;;5046214;28;20553;-81
2021/12/14 03:11:14;;;;;;;7.38;6.97;;;9.00;83.40;;;;;;5026602;28;20041;-81
2021/12/14 03:13:46;;;;;;;8.18;7.78;;;8.90;83.30;;;;;;5053307;28;20394;-83
2021/12/14 03:16:21;;;;;;;8.40;7.90;;;8.90;83.40;;;;;;5036794;28;20037;-81
2021/12/14 03:18:49;;;;;;;7.80;7.40;;;8.90;83.50;;;;;;5055929;28;20025;-81
2021/12/14 03:21:30;;;;;;;7.63;7.18;;;8.90;83.60;;;;;;5033543;28;20041;-81
2021/12/14 03:24:07;;;;;;;7.75;6.45;;;8.90;83.60;;;;;;5045429;28;20744;-81
2021/12/14 03:26:38;;;;;;;7.07;6.63;;;8.90;83.50;;;;;;5066122;28;20036;-81
2021/12/14 03:29:08;;;;;;;7.35;6.93;;;8.90;83.50;;;;;;5049165;28;20028;-80
2021/12/14 03:31:37;;;;;;;7.38;7.03;;;8.90;83.60;;;;;;5037886;28;20042;-80
2021/12/14 03:34:12;;;;;;;6.75;6.45;;;8.90;83.50;;;;;;5047915;28;20474;-80
2021/12/14 03:36:44;;;;;;;7.63;7.03;;;8.90;83.50;;;;;;5046482;28;20040;-80
2021/12/14 03:39:25;;;;;;;6.90;6.50;;;8.90;83.40;;;;;;5032462;28;20048;-80
2021/12/14 03:41:59;;;;;;;8.48;7.97;;;8.90;83.50;;;;;;5051008;28;20025;-80
2021/12/14 03:44:30;;;;;;;8.05;7.45;;;8.90;83.50;;;;;;5033901;28;20055;-80
2021/12/14 03:47:18;;;;;;;8.27;7.78;;;8.90;83.50;;;;;;5053027;28;20041;-80
2021/12/14 03:49:47;;;;;;;7.23;6.83;;;8.90;83.50;;;;;;5053660;28;20037;-82
2021/12/14 03:52:17;;;;;;;6.82;6.43;;;8.90;83.50;;;;;;5037115;28;20037;-79
2021/12/14 03:54:43;;;;;;;7.15;6.63;;;8.80;83.50;;;;;;5033610;28;20037;-80
2021/12/14 03:57:09;;;;;;;7.63;6.97;;;8.80;83.50;;;;;;5051551;28;20020;-80
2021/12/14 03:59:35;;;;;;;8.10;7.47;;;8.80;83.60;;;;;;5052687;28;20378;-79
2021/12/14 04:02:03;;;;;;;7.37;6.97;;;8.80;83.70;;;;;;5052847;28;20060;-80
2021/12/14 04:04:33;;;;;;;7.93;7.43;;;8.80;83.60;;;;;;5035887;28;20053;-82
2021/12/14 04:07:00;;;;;;;7.47;6.97;;;8.80;83.60;;;;;;5051280;28;20021;-80
2021/12/14 04:09:29;;;;;;;6.85;6.55;;;8.80;83.60;;;;;;5049314;28;20481;-82
2021/12/14 04:11:55;;;;;;;6.93;6.57;;;8.80;83.70;;;;;;5035591;28;20037;-80
2021/12/14 04:14:21;;;;;;;6.90;6.50;;;8.80;83.70;;;;;;5051952;28;20095;-80
2021/12/14 04:16:49;;;;;;;6.60;6.30;;;8.80;83.70;;;;;;5033472;28;20040;-80
2021/12/14 04:19:21;;;;;;;8.00;7.40;;;8.80;83.70;;;;;;5035775;28;20041;-80
2021/12/14 04:21:47;;;;;;;7.50;7.20;;;8.80;83.70;;;;;;5035927;28;20489;-79
2021/12/14 04:24:14;;;;;;;7.45;7.05;;;8.90;83.70;;;;;;5034613;28;20052;-80
2021/12/14 04:26:44;;;;;;;7.40;7.00;;;8.90;83.60;;;;;;5049444;28;20021;-80
2021/12/14 04:29:12;;;;;;;6.82;6.53;;;8.90;83.60;;;;;;5052401;28;20386;-80
2021/12/14 04:31:38;;;;;;;6.80;6.50;;;8.80;83.50;;;;;;5035120;28;20045;-80
2021/12/14 04:34:04;;;;;;;6.87;6.57;;;8.80;83.60;;;;;;5052952;28;20040;-80
2021/12/14 04:36:31;;;;;;;6.68;6.38;;;8.80;83.60;;;;;;5052331;28;20052;-80
2021/12/14 04:39:02;;;;;;;7.73;7.33;;;8.70;83.70;;;;;;5051965;28;20036;-80
2021/12/14 04:53:21;;;;;;;7.28;6.88;;;8.60;84.10;;;;;;5023255;28;20064;-79
2021/12/14 04:55:48;;;;;;;6.80;6.50;;;8.60;84.00;;;;;;4983086;28;20097;-80
2021/12/14 04:58:14;;;;;;;7.75;7.32;;;8.60;83.90;;;;;;4982254;28;20043;-79
2021/12/14 05:00:46;;;;;;;7.07;6.72;;;8.70;83.90;;;;;;4979994;28;20033;-80
2021/12/14 05:03:18;;;;;;;7.20;6.60;;;8.70;83.90;;;;;;4988179;28;20045;-80
2021/12/14 05:05:50;;;;;;;7.67;7.20;;;8.70;83.80;;;;;;4977100;28;20034;-80
2021/12/14 05:10:55;;;;;;;7.53;7.13;;;8.70;83.80;;;;;;4966986;28;20041;-80
2021/12/14 05:13:23;;;;;;;7.13;6.75;;;8.70;83.80;;;;;;4975892;28;20082;-80
2021/12/14 05:15:49;;;;;;;6.50;6.20;;;8.70;83.70;;;;;;4963746;28;20038;-79
2021/12/14 05:18:16;;;;;;;7.38;6.97;;;8.70;83.80;;;;;;4979852;28;20471;-80
2021/12/14 05:20:46;;;;;;;7.40;7.00;;;8.70;83.80;;;;;;4976517;28;20526;-80
2021/12/14 05:23:20;;;;;;;7.60;7.20;;;8.70;83.80;;;;;;4974680;28;20049;-80
2021/12/14 05:25:47;;;;;;;7.20;6.80;;;8.70;83.80;;;;;;4966228;28;20273;-80
2021/12/14 05:28:15;;;;;;;6.30;6.00;;;8.70;83.70;;;;;;5048494;28;20073;-79
2021/12/14 05:30:43;;;;;;;7.32;6.93;;;8.60;83.60;;;;;;5050426;28;20032;-80
2021/12/14 05:33:13;;;;;;;6.78;6.47;;;8.60;83.80;;;;;;5051001;28;20033;-80
2021/12/14 05:35:40;;;;;;;7.40;7.05;;;8.60;83.90;;;;;;5052273;28;20040;-80
2021/12/14 05:38:15;;;;;;;7.53;7.15;;;8.60;83.90;;;;;;5033366;28;20040;-79
2021/12/14 05:43:25;;;;;;;6.90;6.60;;;8.60;83.80;;;;;;5052425;28;20040;-79
2021/12/14 05:45:55;;;;;;;6.72;6.40;;;8.70;83.80;;;;;;5032828;28;20040;-79
2021/12/14 05:48:26;;;;;;;6.80;6.50;;;8.70;83.70;;;;;;5050565;28;20049;-79
2021/12/14 05:50:54;;;;;;;;;;;8.70;83.80;;;;;;5050662;28;20033;-79
2021/12/14 05:53:26;;;;;;;6.33;6.03;;;8.60;83.70;;;;;;5051050;28;19905;-80
2021/12/14 05:55:52;;;;;;;7.13;6.72;;;8.60;83.70;;;;;;5050295;28;20025;-79
2021/12/14 05:58:20;;;;;;;6.60;6.30;;;8.60;83.60;;;;;;5050273;28;20036;-80
2021/12/14 06:00:49;;;;;;;6.55;6.25;;;8.50;83.70;;;;;;5049178;28;20033;-78
2021/12/14 06:03:21;;;;;;;7.03;6.63;;;8.60;83.80;;;;;;5050126;28;20100;-81
2021/12/14 06:05:47;;;;;;;8.07;7.65;;;8.50;83.80;;;;;;5030761;28;20038;-81
2021/12/14 06:08:29;;;;;;;6.90;6.60;;;8.60;83.90;;;;;;5050493;28;20035;-82
2021/12/14 06:10:55;;;;;;;;;;;8.60;83.80;;;;;;5033906;28;20041;-84
2021/12/14 06:13:21;;;;;;;6.73;6.43;;;8.60;83.80;;;;;;5066663;28;19916;-82
2021/12/14 06:15:47;;;;;;;6.55;6.25;;;8.60;83.70;;;;;;5049898;28;20044;-82
2021/12/14 06:18:21;;;;;;;7.10;6.60;;;8.60;83.70;;;;;;5033194;28;20409;-82
2021/12/14 06:20:47;;;;;;;6.90;6.60;;;8.60;83.70;;;;;;5049451;28;20036;-83
2021/12/14 06:23:13;;;;;;;6.60;6.30;;;8.60;83.60;;;;;;5033666;28;20029;-81
2021/12/14 06:25:39;;;;;;;6.63;6.32;;;8.60;83.70;;;;;;5033398;28;20402;-81
2021/12/14 06:28:05;;;;;;;6.50;6.20;;;8.60;83.80;;;;;;5050449;28;20040;-84
2021/12/14 06:30:34;;;;;;;7.80;7.05;;;8.60;83.80;;;;;;5050073;28;20052;-82
2021/12/14 06:33:05;;;;;;;7.15;6.70;;;8.50;83.80;;;;;;5052449;28;20028;-82
2021/12/14 06:35:54;;;;;;;6.80;6.50;;;8.50;83.80;;;;;;5053936;28;20029;-83
2021/12/14 06:38:30;;;;;;;7.00;6.60;;;8.50;83.80;;;;;;5053844;28;20501;-83
2021/12/14 06:40:59;;;;;;;7.50;7.10;;;8.50;83.80;;;;;;5037733;28;20048;-83
2021/12/14 06:43:36;;;;;;;6.85;6.55;;;8.40;84.00;;;;;;5019052;28;20518;-81
2021/12/14 06:46:11;;;;;;;7.20;6.90;;;8.40;84.10;;;;;;5049626;28;20037;-81
2021/12/14 06:48:45;;;;;;;7.47;7.07;;;8.40;84.10;;;;;;5036788;28;20405;-82
2021/12/14 06:51:14;;;;;;;8.67;8.27;;;8.40;84.10;;;;;;5037241;28;20508;-81
2021/12/14 06:53:40;;;;;;;9.37;8.97;;;8.50;84.10;;;;;;5037109;28;20393;-81
2021/12/14 06:56:09;;;;;;;7.03;6.72;;;8.50;84.00;;;;;;5054396;28;20474;-80
2021/12/14 06:58:38;;;;;;;7.65;7.25;;;8.60;83.90;;;;;;5037530;28;20025;-80
2021/12/14 07:01:17;;;;;;;7.40;7.03;;;8.60;83.80;;;;;;5053366;28;20390;-81
2021/12/14 07:03:56;;;;;;;7.97;7.38;;;8.60;83.70;;;;;;5054426;28;20048;-81
2021/12/14 07:06:34;;;;;;;7.80;7.38;;;8.60;83.80;;;;;;5054812;28;20041;-81
2021/12/14 07:09:14;;;;;;;6.57;6.28;;;8.50;83.70;;;;;;5036327;28;20486;-81
2021/12/14 07:11:42;;;;;;;7.43;7.03;;;8.50;84.00;;;;;;5050601;28;20021;-81
2021/12/14 07:14:27;;;;;;;7.28;6.88;;;8.40;84.00;;;;;;5053201;28;20037;-81
2021/12/14 07:16:58;;;;;;;7.37;6.87;;;8.50;84.00;;;;;;5051783;28;20059;-81
2021/12/14 07:19:38;;;;;;;;;;;8.50;83.90;;;;;;5053753;28;20024;-81
2021/12/14 07:22:04;;;;;;;6.50;6.20;;;8.50;83.90;;;;;;5049125;28;19916;-81
2021/12/14 07:24:35;;;;;;;6.97;6.53;;;8.40;83.70;;;;;;5036076;28;20532;-81
2021/12/14 07:27:15;;;;;;;7.32;6.68;;;8.40;83.70;;;;;;5053333;28;20025;-81
2021/12/14 07:29:41;;;;;;;6.65;6.35;;;8.40;83.80;;;;;;5038462;28;20486;-81
2021/12/14 07:32:08;;;;;;;6.70;6.33;;;8.30;83.80;;;;;;5053093;28;20032;-81
2021/12/14 07:34:34;;;;;;;6.73;6.43;;;8.30;83.90;;;;;;5036216;28;20482;-81
2021/12/14 07:37:00;;;;;;;7.10;6.70;;;8.30;84.00;;;;;;5053994;28;20025;-82
2021/12/14 07:39:26;;;;;;;6.63;6.33;;;8.20;84.00;;;;;;5052514;28;20037;-82
2021/12/14 07:41:57;;;;;;;6.13;5.82;;;8.20;84.20;;;;;;5053173;28;20025;-82
2021/12/14 07:44:25;;;;;;;7.05;6.68;;;8.20;84.20;;;;;;5051974;28;20041;-82
2021/12/14 07:47:05;;;;;;;6.97;6.57;;;8.10;84.10;;;;;;5052333;28;20052;-82
2021/12/14 07:49:43;;;;;;;6.47;6.17;;;8.10;84.10;;;;;;5052721;28;20045;-81
2021/12/14 07:52:09;;;;;;;6.63;6.33;;;8.10;84.20;;;;;;5035908;28;20044;-83
2021/12/14 07:54:44;;;;;;;6.40;6.10;;;8.00;84.20;;;;;;5054145;28;20029;-82
2021/12/14 07:57:24;;;;;;;7.80;7.20;;;8.00;84.20;;;;;;5052479;28;20021;-83
2021/12/14 08:00:29;;;;;;;8.53;8.13;;;8.00;84.30;;;;;;5053091;28;20025;-82
2021/12/14 08:02:56;;;;;;;7.93;7.53;;;8.00;84.30;;;;;;5023750;28;20029;-82
2021/12/14 08:05:27;;;;;;;8.10;7.70;;;8.10;84.30;;;;;;5035527;28;20512;-81
2021/12/14 08:08:15;;;;;;;8.65;8.25;;;8.20;84.20;;;;;;5054450;28;20025;-82
2021/12/14 08:10:46;;;;;;;12.77;12.15;;;8.30;84.10;;;;;;5036473;28;20040;-84
2021/12/14 08:13:20;;;;;;;8.10;7.60;;;8.30;84.00;;;;;;5035786;28;20409;-81
2021/12/14 08:15:50;;;;;;;6.70;6.40;;;8.40;83.90;;;;;;5052918;28;20390;-81
2021/12/14 08:18:27;;;;;;;7.68;7.28;;;8.40;83.80;;;;;;5052248;28;20033;-81
2021/12/14 08:20:57;;;;;;;6.95;6.50;;;8.30;83.80;;;;;;5052169;28;20363;-82
2021/12/14 08:23:24;;;;;;;6.63;6.32;;;8.30;83.70;;;;;;5048286;28;20390;-85
2021/12/14 08:25:57;;;;;;;6.93;6.53;;;8.20;83.70;;;;;;5054031;28;20044;-84
2021/12/14 08:28:23;;;;;;;6.30;6.00;;;8.20;83.80;;;;;;5045685;28;20032;-86
2021/12/14 08:30:57;;;;;;;7.30;6.90;;;8.20;83.90;;;;;;5049913;28;20028;-86
2021/12/14 08:33:24;;;;;;;7.00;6.70;;;8.10;83.90;;;;;;5049471;28;20028;-83
2021/12/14 08:35:51;;;;;;;6.53;6.23;;;8.10;84.10;;;;;;5033748;28;20033;-82
2021/12/14 08:38:18;;;;;;;7.27;6.97;;;8.10;84.00;;;;;;5034437;28;20049;-83
2021/12/14 08:40:48;;;;;;;9.50;9.00;;;8.20;84.10;;;;;;5034472;28;20029;-83
2021/12/14 08:43:24;;;;;;;11.40;8.57;;;8.20;84.10;;;;;;5035455;28;20040;-82
2021/12/14 08:45:52;;;;;;;8.35;7.95;;;8.20;84.00;;;;;;5051806;28;20497;-83
2021/12/14 08:48:22;;;;;;;8.35;7.93;;;8.30;84.10;;;;;;5052299;28;20407;-83
2021/12/14 08:50:58;;;;;;;9.45;8.77;;;8.40;84.40;;;;;;5033160;28;20494;-83
2021/12/14 08:53:26;;;;;;;7.38;7.07;;;8.70;84.20;;;;;;5051070;28;20025;-85
2021/12/14 08:55:55;;;;;;;8.00;7.63;;;8.80;83.70;;;;;;5050699;28;20044;-84
2021/12/14 08:58:21;;;;;;;9.73;9.27;;;9.00;83.60;;;;;;5049057;28;20029;-84
2021/12/14 09:00:49;;;;;;;9.23;8.80;;;9.10;83.50;;;;;;5043757;28;20033;-83
2021/12/14 09:03:36;;;;;;;9.82;9.32;;;9.20;83.40;;;;;;5034432;28;20048;-82
2021/12/14 09:06:11;;;;;;;10.25;9.75;;;9.30;83.30;;;;;;5032455;28;20375;-84
2021/12/14 09:08:38;;;;;;;11.15;10.65;;;9.50;83.30;;;;;;5050168;28;20037;-84
2021/12/14 09:11:04;;;;;;;8.18;7.78;;;9.60;83.00;;;;;;5031131;28;20045;-85
2021/12/14 09:13:30;;;;;;;7.20;6.90;;;9.70;83.00;;;;;;5048692;28;20032;-84
2021/12/14 09:15:58;;;;;;;9.52;8.90;;;9.70;82.80;;;;;;5049744;28;20381;-82
2021/12/14 09:18:24;;;;;;;10.07;9.57;;;9.70;82.50;;;;;;5048388;28;20021;-84
2021/12/14 09:20:53;;;;;;;9.70;9.20;;;9.50;82.30;;;;;;5032245;28;20589;-84
2021/12/14 09:23:22;;;;;;;8.60;8.20;;;9.30;82.60;;;;;;5032886;28;20298;-84
2021/12/14 09:25:48;;;;;;;7.55;7.25;;;9.10;82.80;;;;;;5016500;28;20512;-87
2021/12/14 09:28:15;;;;;;;9.30;8.80;;;8.90;83.10;;;;;;5033363;28;20051;-84
2021/12/14 09:30:44;;;;;;;13.90;13.20;;;8.70;83.40;;;;;;5014356;28;20033;-85
2021/12/14 09:33:11;;;;;;;8.00;7.60;;;8.60;83.70;;;;;;5014580;28;20038;-84
2021/12/14 09:35:37;;;;;;;7.95;7.53;;;8.50;83.90;;;;;;5047549;28;20040;-84
2021/12/14 09:38:08;;;;;;;6.90;6.60;;;8.40;84.00;;;;;;5047389;28;20037;-84
2021/12/14 09:40:50;;;;;;;7.07;6.78;;;8.30;84.00;;;;;;5053304;28;20478;-83
2021/12/14 09:43:17;;;;;;;6.40;6.10;;;8.20;84.00;;;;;;5050439;28;20021;-84
2021/12/14 09:45:45;;;;;;;6.33;6.03;;;8.20;84.30;;;;;;5015500;28;21418;-82
2021/12/14 09:48:14;;;;;;;7.25;6.85;;;8.20;84.30;;;;;;5033524;28;20037;-82
2021/12/14 09:50:41;;;;;;;6.60;6.30;;;8.10;84.30;;;;;;5049310;28;20025;-85
2021/12/14 09:53:10;;;;;;;7.60;7.00;;;8.10;84.20;;;;;;5050269;28;20470;-85
2021/12/14 09:55:38;;;;;;;6.87;6.57;;;8.10;84.20;;;;;;5033220;28;20025;-81
2021/12/14 09:58:12;;;;;;;6.70;6.40;;;8.10;84.30;;;;;;5048086;28;20375;-81
2021/12/14 10:00:46;;;;;;;7.05;6.65;;;8.10;84.30;;;;;;5048787;28;20033;-79
2021/12/14 10:03:12;;;;;;;6.57;6.28;;;8.10;84.30;;;;;;5020769;28;20081;-83
2021/12/14 10:05:41;;;;;;;7.18;6.68;;;8.10;84.30;;;;;;5047283;28;20045;-85
2021/12/14 10:08:15;;;;;;;6.73;6.43;;;8.10;84.10;;;;;;5050386;28;20463;-83
2021/12/14 10:10:43;;;;;;;6.80;6.50;;;8.10;84.10;;;;;;5034307;28;20033;-83
2021/12/14 10:13:09;;;;;;;6.70;6.30;;;8.10;84.20;;;;;;5043254;28;20394;-84
2021/12/14 10:15:56;;;;;;;27.20;6.80;;;8.10;84.10;;;;;;5030405;28;20032;-83
2021/12/14 10:18:33;;;;;;;7.15;6.75;;;8.10;84.20;;;;;;5048735;28;20029;-83
2021/12/14 10:21:13;;;;;;;7.28;6.88;;;8.10;84.20;;;;;;5032277;28;20381;-82
2021/12/14 10:23:40;;;;;;;7.17;6.77;;;8.10;84.20;;;;;;5046765;28;20033;-82
2021/12/14 10:26:06;;;;;;;6.70;6.40;;;8.10;84.10;;;;;;5052152;28;20494;-82
2021/12/14 10:28:33;;;;;;;7.22;6.82;;;8.20;84.10;;;;;;5047103;28;20505;-86
2021/12/14 10:31:03;;;;;;;6.78;6.47;;;8.20;84.10;;;;;;5046965;28;20386;-83
2021/12/14 10:33:32;;;;;;;6.60;6.30;;;8.20;84.00;;;;;;5033463;28;20040;-84
2021/12/14 10:36:03;;;;;;;6.45;6.15;;;8.20;84.00;;;;;;5047195;28;20029;-84
2021/12/14 10:38:38;;;;;;;;;;;8.20;84.10;;;;;;5032521;28;20026;-83
2021/12/14 10:44:00;;;;;;;6.43;6.13;;;8.10;83.80;;;;;;5055545;28;20029;-87
2021/12/14 10:46:37;;;;;;;6.17;5.87;;;8.10;84.00;;;;;;5047354;28;20409;-84
2021/12/14 10:49:04;;;;;;;7.13;6.70;;;8.10;84.20;;;;;;5043767;28;20048;-88
2021/12/14 10:51:34;;;;;;;7.22;6.88;;;8.00;84.10;;;;;;5016626;28;20045;-84
2021/12/14 10:54:00;;;;;;;7.07;6.73;;;8.10;84.30;;;;;;5047142;28;20052;-91
2021/12/14 10:56:54;;;;;;;6.97;6.67;;;8.10;84.20;;;;;;5031209;28;20048;-84
2021/12/14 10:59:22;;;;;;;6.20;5.90;;;8.10;84.20;;;;;;5040465;28;20052;-82
2021/12/14 11:01:52;;;;;;;6.95;6.60;;;8.20;84.20;;;;;;5031518;28;20044;-88
2021/12/14 11:04:34;;;;;;;6.80;6.50;;;8.20;84.00;;;;;;5033523;28;20393;-84
2021/12/14 11:07:02;;;;;;;6.38;6.07;;;8.20;83.80;;;;;;5042913;28;20033;-85
2021/12/14 11:12:07;;;;;;;6.90;6.60;;;8.20;84.00;;;;;;5051104;28;20040;-85
2021/12/14 11:14:35;;;;;;;6.90;6.60;;;8.20;84.00;;;;;;5036388;28;20029;-86
2021/12/14 11:19:53;;;;;;;7.13;6.53;;;8.20;83.80;;;;;;5055302;28;20029;-84
2021/12/14 11:22:47;;;;;;;6.60;6.30;;;8.20;84.00;;;;;;5056178;28;20060;-84
2021/12/14 11:25:20;;;;;;;6.35;6.05;;;8.20;84.10;;;;;;5053818;28;20037;-85
2021/12/14 11:28:10;;;;;;;6.47;6.17;;;8.10;84.10;;;;;;5054907;28;20488;-84
2021/12/14 11:30:50;;;;;;;6.07;5.78;;;8.00;84.10;;;;;;5038153;28;20021;-84
2021/12/14 11:33:24;;;;;;;6.38;6.07;;;8.00;84.20;;;;;;5052742;28;20481;-83
2021/12/14 11:36:22;;;;;;;7.57;7.18;;;8.00;84.20;;;;;;5052808;28;20445;-84
2021/12/14 11:38:53;;;;;;;7.37;7.07;;;8.00;84.30;;;;;;5030600;28;20044;-85
2021/12/14 11:41:36;;;;;;;6.78;6.47;;;8.10;84.30;;;;;;5054055;28;20028;-84
2021/12/14 11:44:15;;;;;;;6.90;6.53;;;8.10;84.10;;;;;;5051026;28;20390;-85
2021/12/14 11:46:53;;;;;;;6.83;6.53;;;8.10;83.90;;;;;;5035183;28;20391;-84
2021/12/14 11:49:21;;;;;;;6.63;6.33;;;8.20;84.10;;;;;;5013134;28;20053;-84
2021/12/14 11:51:47;;;;;;;6.97;6.50;;;8.20;84.00;;;;;;5012810;28;20030;-83
2021/12/14 11:54:16;;;;;;;7.15;6.60;;;8.20;83.80;;;;;;4996197;28;20038;-85
2021/12/14 11:56:42;;;;;;;6.70;6.40;;;8.20;83.90;;;;;;5013256;28;20026;-84
2021/12/14 11:59:08;;;;;;;7.70;7.30;;;8.30;84.60;;;;;;5013159;28;20033;-84
2021/12/14 12:01:36;;;;;;;7.20;6.80;;;8.20;83.90;;;;;;4996056;28;20030;-84
2021/12/14 12:04:24;;;;;;;6.97;6.67;;;8.20;84.00;;;;;;5012770;28;20037;-84
2021/12/14 12:09:48;;;;;;;7.90;7.38;;;8.30;84.00;;;;;;5014317;28;20075;-84
2021/12/14 12:12:25;;;;;;;7.60;7.20;;;8.30;83.90;;;;;;5012441;28;20034;-84
2021/12/14 12:15:19;;;;;;;7.00;6.63;;;8.40;83.80;;;;;;5012202;28;20036;-84
2021/12/14 12:17:58;;;;;;;6.90;6.53;;;8.30;83.70;;;;;;4997767;28;20026;-84
2021/12/14 12:20:30;;;;;;;6.90;6.60;;;8.30;83.70;;;;;;5012231;28;20030;-85
2021/12/14 12:23:01;;;;;;;7.75;7.25;;;8.30;83.80;;;;;;5012704;28;20034;-85
2021/12/14 12:25:37;;;;;;;7.88;7.38;;;8.30;83.80;;;;;;4996545;28;20049;-85
2021/12/14 12:28:13;;;;;;;7.40;7.00;;;8.40;83.80;;;;;;4995587;28;20036;-85
2021/12/14 12:31:05;;;;;;;6.80;6.50;;;8.40;83.70;;;;;;5011062;28;20026;-85
2021/12/14 12:33:32;;;;;;;6.90;6.47;;;8.40;83.70;;;;;;5012312;28;20041;-85
2021/12/14 12:36:20;;;;;;;6.80;6.50;;;8.40;83.60;;;;;;4996514;28;20050;-85
2021/12/14 12:39:06;;;;;;;6.57;6.27;;;8.40;83.60;;;;;;4998915;28;20026;-85
2021/12/14 12:41:37;;;;;;;6.30;6.00;;;8.40;83.70;;;;;;5012216;28;20487;-85
2021/12/14 12:44:14;;;;;;;6.23;5.93;;;8.30;83.70;;;;;;5012450;28;20037;-85
2021/12/14 12:46:45;;;;;;;7.10;6.78;;;8.30;83.70;;;;;;5011990;28;20392;-85
2021/12/14 12:49:25;;;;;;;;;;;8.30;83.80;;;;;;5033145;28;20048;-85
2021/12/14 12:51:51;;;;;;;6.50;6.20;;;8.30;83.90;;;;;;5051467;28;19913;-85
2021/12/14 12:54:22;;;;;;;6.83;6.53;;;8.30;83.70;;;;;;5052769;28;20033;-84
2021/12/14 12:57:29;;;;;;;6.57;6.27;;;8.30;83.70;;;;;;5034255;28;20041;-84
2021/12/14 13:00:09;;;;;;;7.30;6.80;;;8.40;83.90;;;;;;5042454;28;20374;-85
2021/12/14 13:02:52;;;;;;;6.90;6.60;;;8.30;83.80;;;;;;5034656;28;20536;-85
2021/12/14 13:05:38;;;;;;;7.30;6.90;;;8.40;83.80;;;;;;5048511;28;20363;-84
2021/12/14 13:08:04;;;;;;;6.50;6.10;;;8.40;83.80;;;;;;5063143;28;20039;-84
2021/12/14 13:10:35;;;;;;;6.38;6.07;;;8.40;83.70;;;;;;5050818;28;20059;-83
2021/12/14 13:13:22;;;;;;;7.57;7.18;;;8.40;83.80;;;;;;5051226;28;20033;-85
2021/12/14 13:16:09;;;;;;;7.18;6.80;;;8.40;83.70;;;;;;5050631;28;20033;-85
2021/12/14 13:18:44;;;;;;;6.77;6.47;;;8.40;83.80;;;;;;5052069;28;20025;-86
2021/12/14 13:21:29;;;;;;;7.55;7.15;;;8.40;83.80;;;;;;5051078;28;20048;-85
2021/12/14 13:24:05;;;;;;;7.32;6.90;;;8.40;83.80;;;;;;5050237;28;20041;-85
2021/12/14 13:26:34;;;;;;;7.47;7.07;;;8.40;83.80;;;;;;5051774;28;20045;-85
2021/12/14 13:29:12;;;;;;;6.60;6.30;;;8.30;83.80;;;;;;5052557;28;20029;-85
2021/12/14 13:31:41;;;;;;;6.25;5.95;;;8.40;83.90;;;;;;5051921;28;20486;-85
2021/12/14 13:34:18;;;;;;;6.47;6.17;;;8.30;83.90;;;;;;5051815;28;20096;-85
2021/12/14 13:36:44;;;;;;;7.63;7.17;;;8.30;83.80;;;;;;5051750;28;20032;-85
2021/12/14 13:39:11;;;;;;;6.50;6.20;;;8.40;83.90;;;;;;5049921;28;20040;-85
2021/12/14 13:42:00;;;;;;;6.80;6.50;;;8.40;83.80;;;;;;5049937;28;20040;-85
2021/12/14 13:44:36;;;;;;;6.70;6.40;;;8.40;83.80;;;;;;5050481;28;20033;-85
2021/12/14 13:47:04;;;;;;;6.20;5.90;;;8.40;83.60;;;;;;5050587;28;20037;-84
2021/12/14 13:49:30;;;;;;;7.00;6.60;;;8.30;83.70;;;;;;5051145;28;20215;-84
2021/12/14 13:51:56;;;;;;;6.25;5.95;;;8.30;83.80;;;;;;5051283;28;20036;-84
2021/12/14 13:54:23;;;;;;;7.00;6.70;;;8.40;83.90;;;;;;5051415;28;20028;-85
2021/12/14 13:56:50;;;;;;;7.07;6.57;;;8.40;83.80;;;;;;5033271;28;20497;-85
2021/12/14 13:59:16;;;;;;;6.68;6.38;;;8.30;83.70;;;;;;5050508;28;20379;-85
2021/12/14 14:01:48;;;;;;;6.50;6.13;;;8.30;83.70;;;;;;5051413;28;20398;-85